sensor_id;sensor_type;location;lat;lon;timestamp;P1;durP1;ratioP1;P2;durP2;ratioP2
56991;SDS011;42885;49.754;18.636;2023-02-15T00:02:19;71.50;;;40.76;;
56991;SDS011;42885;49.754;18.636;2023-02-15T00:04:50;68.67;;;40.30;;
56991;SDS011;42885;49.754;18.636;2023-02-15T00:07:22;73.93;;;41.50;;
56991;SDS011;42885;49.754;18.636;2023-02-15T00:09:53;72.53;;;40.67;;
56991;SDS011;42885;49.754;18.636;2023-02-15T00:12:24;72.72;;;42.58;;
56991;SDS011;42885;49.754;18.636;2023-02-15T00:14:55;75.47;;;41.45;;
56991;SDS011;42885;49.754;18.636;2023-02-15T00:17:27;71.07;;;40.43;;
56991;SDS011;42885;49.754;18.636;2023-02-15T00:19:58;70.72;;;41.25;;
56991;SDS011;42885;49.754;18.636;2023-02-15T00:22:29;73.78;;;41.65;;
56991;SDS011;42885;49.754;18.636;2023-02-15T00:25:00;72.30;;;40.70;;
56991;SDS011;42885;49.754;18.636;2023-02-15T00:27:32;72.22;;;41.53;;
56991;SDS011;42885;49.754;18.636;2023-02-15T00:30:04;69.77;;;41.30;;
56991;SDS011;42885;49.754;18.636;2023-02-15T00:32:36;69.82;;;39.27;;
56991;SDS011;42885;49.754;18.636;2023-02-15T00:35:07;69.97;;;39.10;;
56991;SDS011;42885;49.754;18.636;2023-02-15T00:37:40;72.50;;;39.45;;
56991;SDS011;42885;49.754;18.636;2023-02-15T00:40:11;70.10;;;40.00;;
56991;SDS011;42885;49.754;18.636;2023-02-15T00:42:42;66.30;;;38.80;;
56991;SDS011;42885;49.754;18.636;2023-02-15T00:45:13;67.90;;;39.08;;
56991;SDS011;42885;49.754;18.636;2023-02-15T00:47:44;74.92;;;39.73;;
56991;SDS011;42885;49.754;18.636;2023-02-15T00:50:15;71.15;;;39.80;;
56991;SDS011;42885;49.754;18.636;2023-02-15T00:52:48;64.05;;;37.35;;
56991;SDS011;42885;49.754;18.636;2023-02-15T00:55:19;75.08;;;41.33;;
56991;SDS011;42885;49.754;18.636;2023-02-15T00:57:51;76.05;;;41.75;;
56991;SDS011;42885;49.754;18.636;2023-02-15T01:00:22;73.75;;;42.55;;
56991;SDS011;42885;49.754;18.636;2023-02-15T01:02:53;81.25;;;43.60;;
56991;SDS011;42885;49.754;18.636;2023-02-15T01:05:25;78.47;;;43.52;;
56991;SDS011;42885;49.754;18.636;2023-02-15T01:07:56;82.15;;;43.83;;
56991;SDS011;42885;49.754;18.636;2023-02-15T01:10:28;80.95;;;42.55;;
56991;SDS011;42885;49.754;18.636;2023-02-15T01:12:59;77.90;;;42.70;;
56991;SDS011;42885;49.754;18.636;2023-02-15T01:15:30;85.42;;;45.52;;
56991;SDS011;42885;49.754;18.636;2023-02-15T01:18:02;87.05;;;45.78;;
56991;SDS011;42885;49.754;18.636;2023-02-15T01:20:34;74.42;;;43.10;;
56991;SDS011;42885;49.754;18.636;2023-02-15T01:23:07;80.32;;;44.27;;
56991;SDS011;42885;49.754;18.636;2023-02-15T01:25:39;82.12;;;44.00;;
56991;SDS011;42885;49.754;18.636;2023-02-15T01:28:11;72.90;;;42.90;;
56991;SDS011;42885;49.754;18.636;2023-02-15T01:30:42;77.72;;;43.10;;
56991;SDS011;42885;49.754;18.636;2023-02-15T01:33:13;76.75;;;42.88;;
56991;SDS011;42885;49.754;18.636;2023-02-15T01:35:46;79.23;;;41.23;;
56991;SDS011;42885;49.754;18.636;2023-02-15T01:38:18;74.07;;;43.15;;
56991;SDS011;42885;49.754;18.636;2023-02-15T01:40:53;80.05;;;41.90;;
56991;SDS011;42885;49.754;18.636;2023-02-15T01:43:38;80.45;;;42.88;;
56991;SDS011;42885;49.754;18.636;2023-02-15T01:46:09;77.60;;;42.53;;
56991;SDS011;42885;49.754;18.636;2023-02-15T01:51:17;78.40;;;40.12;;
56991;SDS011;42885;49.754;18.636;2023-02-15T01:53:52;89.97;;;44.13;;
56991;SDS011;42885;49.754;18.636;2023-02-15T01:58:56;90.83;;;46.42;;
56991;SDS011;42885;49.754;18.636;2023-02-15T02:01:30;82.08;;;42.15;;
56991;SDS011;42885;49.754;18.636;2023-02-15T02:06:47;87.78;;;45.48;;
56991;SDS011;42885;49.754;18.636;2023-02-15T02:09:20;84.83;;;43.68;;
56991;SDS011;42885;49.754;18.636;2023-02-15T02:11:51;87.17;;;45.78;;
56991;SDS011;42885;49.754;18.636;2023-02-15T02:14:23;86.77;;;45.37;;
56991;SDS011;42885;49.754;18.636;2023-02-15T02:20:13;86.87;;;45.63;;
56991;SDS011;42885;49.754;18.636;2023-02-15T02:31:29;92.27;;;45.33;;
56991;SDS011;42885;49.754;18.636;2023-02-15T02:45:14;89.97;;;44.90;;
56991;SDS011;42885;49.754;18.636;2023-02-15T02:47:48;89.13;;;46.98;;
56991;SDS011;42885;49.754;18.636;2023-02-15T02:50:28;90.23;;;46.43;;
56991;SDS011;42885;49.754;18.636;2023-02-15T02:53:00;88.75;;;45.70;;
56991;SDS011;42885;49.754;18.636;2023-02-15T02:55:47;90.22;;;45.90;;
56991;SDS011;42885;49.754;18.636;2023-02-15T02:58:29;81.75;;;44.03;;
56991;SDS011;42885;49.754;18.636;2023-02-15T03:01:03;91.12;;;46.15;;
56991;SDS011;42885;49.754;18.636;2023-02-15T03:03:38;86.45;;;44.65;;
56991;SDS011;42885;49.754;18.636;2023-02-15T03:06:20;82.02;;;43.17;;
56991;SDS011;42885;49.754;18.636;2023-02-15T03:08:58;76.82;;;40.08;;
56991;SDS011;42885;49.754;18.636;2023-02-15T03:11:31;75.62;;;40.70;;
56991;SDS011;42885;49.754;18.636;2023-02-15T03:14:02;74.15;;;40.98;;
56991;SDS011;42885;49.754;18.636;2023-02-15T03:16:33;75.47;;;39.70;;
56991;SDS011;42885;49.754;18.636;2023-02-15T03:19:08;78.07;;;41.68;;
56991;SDS011;42885;49.754;18.636;2023-02-15T03:21:48;80.75;;;41.83;;
56991;SDS011;42885;49.754;18.636;2023-02-15T03:24:28;71.80;;;40.03;;
56991;SDS011;42885;49.754;18.636;2023-02-15T03:27:02;75.57;;;41.95;;
56991;SDS011;42885;49.754;18.636;2023-02-15T03:29:35;79.25;;;40.08;;
56991;SDS011;42885;49.754;18.636;2023-02-15T03:32:08;79.85;;;42.50;;
56991;SDS011;42885;49.754;18.636;2023-02-15T03:34:41;80.25;;;41.20;;
56991;SDS011;42885;49.754;18.636;2023-02-15T03:37:16;78.53;;;41.13;;
56991;SDS011;42885;49.754;18.636;2023-02-15T03:43:08;76.97;;;40.25;;
56991;SDS011;42885;49.754;18.636;2023-02-15T03:45:51;74.15;;;39.78;;
56991;SDS011;42885;49.754;18.636;2023-02-15T03:48:29;66.12;;;36.45;;
56991;SDS011;42885;49.754;18.636;2023-02-15T03:51:02;63.92;;;35.03;;
56991;SDS011;42885;49.754;18.636;2023-02-15T03:53:52;65.37;;;35.52;;
56991;SDS011;42885;49.754;18.636;2023-02-15T03:56:25;49.33;;;27.13;;
56991;SDS011;42885;49.754;18.636;2023-02-15T03:58:56;49.13;;;27.73;;
56991;SDS011;42885;49.754;18.636;2023-02-15T04:04:35;45.48;;;26.55;;
56991;SDS011;42885;49.754;18.636;2023-02-15T04:07:08;42.83;;;24.80;;
56991;SDS011;42885;49.754;18.636;2023-02-15T04:09:40;46.48;;;23.30;;
56991;SDS011;42885;49.754;18.636;2023-02-15T04:12:28;48.45;;;24.92;;
56991;SDS011;42885;49.754;18.636;2023-02-15T04:15:00;51.75;;;26.93;;
56991;SDS011;42885;49.754;18.636;2023-02-15T04:17:49;51.28;;;26.93;;
56991;SDS011;42885;49.754;18.636;2023-02-15T04:20:20;47.50;;;26.73;;
56991;SDS011;42885;49.754;18.636;2023-02-15T04:23:09;53.23;;;28.35;;
56991;SDS011;42885;49.754;18.636;2023-02-15T04:25:57;48.13;;;26.07;;
56991;SDS011;42885;49.754;18.636;2023-02-15T04:28:28;39.88;;;22.62;;
56991;SDS011;42885;49.754;18.636;2023-02-15T04:30:59;44.80;;;23.43;;
56991;SDS011;42885;49.754;18.636;2023-02-15T04:33:30;43.55;;;24.95;;
56991;SDS011;42885;49.754;18.636;2023-02-15T04:36:02;42.70;;;24.30;;
56991;SDS011;42885;49.754;18.636;2023-02-15T04:38:34;52.78;;;26.42;;
56991;SDS011;42885;49.754;18.636;2023-02-15T04:41:05;38.65;;;23.73;;
56991;SDS011;42885;49.754;18.636;2023-02-15T04:43:35;41.98;;;23.75;;
56991;SDS011;42885;49.754;18.636;2023-02-15T04:46:06;43.68;;;23.27;;
56991;SDS011;42885;49.754;18.636;2023-02-15T04:48:37;38.55;;;22.52;;
56991;SDS011;42885;49.754;18.636;2023-02-15T04:51:08;36.90;;;22.93;;
56991;SDS011;42885;49.754;18.636;2023-02-15T04:53:40;37.73;;;21.75;;
56991;SDS011;42885;49.754;18.636;2023-02-15T04:56:11;39.70;;;22.77;;
56991;SDS011;42885;49.754;18.636;2023-02-15T04:58:42;35.48;;;22.17;;
56991;SDS011;42885;49.754;18.636;2023-02-15T05:01:13;45.75;;;23.80;;
56991;SDS011;42885;49.754;18.636;2023-02-15T05:03:44;40.33;;;23.42;;
56991;SDS011;42885;49.754;18.636;2023-02-15T05:06:15;41.73;;;23.75;;
56991;SDS011;42885;49.754;18.636;2023-02-15T05:08:46;36.83;;;22.45;;
56991;SDS011;42885;49.754;18.636;2023-02-15T05:11:18;39.70;;;22.35;;
56991;SDS011;42885;49.754;18.636;2023-02-15T05:13:49;40.38;;;22.98;;
56991;SDS011;42885;49.754;18.636;2023-02-15T05:16:20;38.63;;;21.87;;
56991;SDS011;42885;49.754;18.636;2023-02-15T05:18:51;41.42;;;22.98;;
56991;SDS011;42885;49.754;18.636;2023-02-15T05:21:22;43.07;;;23.83;;
56991;SDS011;42885;49.754;18.636;2023-02-15T05:23:53;38.05;;;22.58;;
56991;SDS011;42885;49.754;18.636;2023-02-15T05:26:24;38.28;;;23.52;;
56991;SDS011;42885;49.754;18.636;2023-02-15T05:29:14;38.50;;;23.20;;
56991;SDS011;42885;49.754;18.636;2023-02-15T05:31:45;39.92;;;22.67;;
56991;SDS011;42885;49.754;18.636;2023-02-15T05:34:17;39.92;;;23.38;;
56991;SDS011;42885;49.754;18.636;2023-02-15T05:36:48;41.25;;;23.50;;
56991;SDS011;42885;49.754;18.636;2023-02-15T05:39:19;38.97;;;22.93;;
56991;SDS011;42885;49.754;18.636;2023-02-15T05:41:50;41.00;;;24.13;;
56991;SDS011;42885;49.754;18.636;2023-02-15T05:44:21;38.60;;;23.83;;
56991;SDS011;42885;49.754;18.636;2023-02-15T05:46:52;49.23;;;27.62;;
56991;SDS011;42885;49.754;18.636;2023-02-15T05:49:23;42.97;;;23.87;;
56991;SDS011;42885;49.754;18.636;2023-02-15T05:51:54;49.63;;;25.77;;
56991;SDS011;42885;49.754;18.636;2023-02-15T05:54:25;44.25;;;25.45;;
56991;SDS011;42885;49.754;18.636;2023-02-15T05:56:57;62.55;;;35.78;;
56991;SDS011;42885;49.754;18.636;2023-02-15T05:59:28;47.50;;;26.13;;
56991;SDS011;42885;49.754;18.636;2023-02-15T06:01:59;43.35;;;25.32;;
56991;SDS011;42885;49.754;18.636;2023-02-15T06:04:30;46.73;;;26.42;;
56991;SDS011;42885;49.754;18.636;2023-02-15T06:07:01;50.95;;;30.10;;
56991;SDS011;42885;49.754;18.636;2023-02-15T06:09:32;50.73;;;29.65;;
56991;SDS011;42885;49.754;18.636;2023-02-15T06:12:03;54.05;;;30.35;;
56991;SDS011;42885;49.754;18.636;2023-02-15T06:14:34;47.03;;;28.07;;
56991;SDS011;42885;49.754;18.636;2023-02-15T06:17:05;51.08;;;28.30;;
56991;SDS011;42885;49.754;18.636;2023-02-15T06:19:36;60.17;;;31.15;;
56991;SDS011;42885;49.754;18.636;2023-02-15T06:22:07;61.90;;;30.25;;
56991;SDS011;42885;49.754;18.636;2023-02-15T06:24:39;70.87;;;33.15;;
56991;SDS011;42885;49.754;18.636;2023-02-15T06:27:11;69.37;;;32.13;;
56991;SDS011;42885;49.754;18.636;2023-02-15T06:29:42;70.90;;;31.25;;
56991;SDS011;42885;49.754;18.636;2023-02-15T06:32:14;90.32;;;34.28;;
56991;SDS011;42885;49.754;18.636;2023-02-15T06:34:45;75.17;;;33.18;;
56991;SDS011;42885;49.754;18.636;2023-02-15T06:37:16;61.18;;;29.05;;
56991;SDS011;42885;49.754;18.636;2023-02-15T06:39:47;63.85;;;29.67;;
56991;SDS011;42885;49.754;18.636;2023-02-15T06:42:18;97.95;;;49.40;;
56991;SDS011;42885;49.754;18.636;2023-02-15T06:44:49;59.00;;;30.48;;
56991;SDS011;42885;49.754;18.636;2023-02-15T06:47:20;52.67;;;27.27;;
56991;SDS011;42885;49.754;18.636;2023-02-15T06:49:51;50.92;;;26.97;;
56991;SDS011;42885;49.754;18.636;2023-02-15T06:52:23;50.58;;;27.50;;
56991;SDS011;42885;49.754;18.636;2023-02-15T06:54:54;48.87;;;26.10;;
56991;SDS011;42885;49.754;18.636;2023-02-15T06:57:25;47.93;;;28.25;;
56991;SDS011;42885;49.754;18.636;2023-02-15T06:59:56;48.78;;;27.00;;
56991;SDS011;42885;49.754;18.636;2023-02-15T07:02:27;54.13;;;28.17;;
56991;SDS011;42885;49.754;18.636;2023-02-15T07:04:58;47.70;;;27.48;;
56991;SDS011;42885;49.754;18.636;2023-02-15T07:07:29;50.35;;;27.00;;
56991;SDS011;42885;49.754;18.636;2023-02-15T07:10:00;46.00;;;27.20;;
56991;SDS011;42885;49.754;18.636;2023-02-15T07:12:31;44.63;;;26.73;;
56991;SDS011;42885;49.754;18.636;2023-02-15T07:15:12;46.75;;;27.98;;
56991;SDS011;42885;49.754;18.636;2023-02-15T07:17:46;46.25;;;27.30;;
56991;SDS011;42885;49.754;18.636;2023-02-15T07:20:19;52.13;;;28.62;;
56991;SDS011;42885;49.754;18.636;2023-02-15T07:22:51;47.33;;;27.80;;
56991;SDS011;42885;49.754;18.636;2023-02-15T07:25:22;48.92;;;28.17;;
56991;SDS011;42885;49.754;18.636;2023-02-15T07:27:56;51.88;;;29.07;;
56991;SDS011;42885;49.754;18.636;2023-02-15T07:30:28;46.25;;;27.65;;
56991;SDS011;42885;49.754;18.636;2023-02-15T07:33:00;49.63;;;27.73;;
56991;SDS011;42885;49.754;18.636;2023-02-15T07:35:52;45.58;;;27.58;;
56991;SDS011;42885;49.754;18.636;2023-02-15T07:38:26;42.30;;;25.67;;
56991;SDS011;42885;49.754;18.636;2023-02-15T07:40:59;43.28;;;26.50;;
56991;SDS011;42885;49.754;18.636;2023-02-15T07:43:40;53.95;;;29.35;;
56991;SDS011;42885;49.754;18.636;2023-02-15T07:46:14;55.00;;;30.30;;
56991;SDS011;42885;49.754;18.636;2023-02-15T07:48:46;54.90;;;29.57;;
56991;SDS011;42885;49.754;18.636;2023-02-15T07:51:17;54.85;;;30.75;;
56991;SDS011;42885;49.754;18.636;2023-02-15T07:53:48;55.78;;;30.80;;
56991;SDS011;42885;49.754;18.636;2023-02-15T07:56:20;52.97;;;30.17;;
56991;SDS011;42885;49.754;18.636;2023-02-15T07:58:51;52.38;;;30.52;;
56991;SDS011;42885;49.754;18.636;2023-02-15T08:01:30;56.55;;;30.97;;
56991;SDS011;42885;49.754;18.636;2023-02-15T08:03:58;51.75;;;30.08;;
56991;SDS011;42885;49.754;18.636;2023-02-15T08:06:30;46.48;;;28.23;;
56991;SDS011;42885;49.754;18.636;2023-02-15T08:09:04;48.83;;;28.57;;
56991;SDS011;42885;49.754;18.636;2023-02-15T08:14:12;40.00;;;25.00;;
56991;SDS011;42885;49.754;18.636;2023-02-15T08:16:49;42.00;;;24.67;;
56991;SDS011;42885;49.754;18.636;2023-02-15T08:22:04;40.95;;;24.50;;
56991;SDS011;42885;49.754;18.636;2023-02-15T08:24:34;43.13;;;25.55;;
56991;SDS011;42885;49.754;18.636;2023-02-15T08:27:07;41.23;;;24.27;;
56991;SDS011;42885;49.754;18.636;2023-02-15T08:29:40;45.45;;;25.85;;
56991;SDS011;42885;49.754;18.636;2023-02-15T08:32:11;44.18;;;25.55;;
56991;SDS011;42885;49.754;18.636;2023-02-15T08:34:42;32.58;;;19.12;;
56991;SDS011;42885;49.754;18.636;2023-02-15T08:37:13;32.70;;;19.00;;
56991;SDS011;42885;49.754;18.636;2023-02-15T08:39:45;34.15;;;20.00;;
56991;SDS011;42885;49.754;18.636;2023-02-15T08:42:16;28.00;;;18.05;;
56991;SDS011;42885;49.754;18.636;2023-02-15T08:44:48;35.53;;;21.50;;
56991;SDS011;42885;49.754;18.636;2023-02-15T08:47:20;34.07;;;20.80;;
56991;SDS011;42885;49.754;18.636;2023-02-15T08:49:51;32.33;;;20.40;;
56991;SDS011;42885;49.754;18.636;2023-02-15T08:52:22;30.45;;;20.05;;
56991;SDS011;42885;49.754;18.636;2023-02-15T08:54:53;32.20;;;19.92;;
56991;SDS011;42885;49.754;18.636;2023-02-15T08:57:24;28.85;;;17.98;;
56991;SDS011;42885;49.754;18.636;2023-02-15T08:59:56;25.68;;;17.05;;
56991;SDS011;42885;49.754;18.636;2023-02-15T09:02:28;27.33;;;17.47;;
56991;SDS011;42885;49.754;18.636;2023-02-15T09:04:58;28.77;;;19.35;;
56991;SDS011;42885;49.754;18.636;2023-02-15T09:07:29;29.77;;;19.85;;
56991;SDS011;42885;49.754;18.636;2023-02-15T09:10:00;30.43;;;19.00;;
56991;SDS011;42885;49.754;18.636;2023-02-15T09:12:32;29.40;;;20.23;;
56991;SDS011;42885;49.754;18.636;2023-02-15T09:15:03;30.55;;;20.10;;
56991;SDS011;42885;49.754;18.636;2023-02-15T09:17:34;29.98;;;20.65;;
56991;SDS011;42885;49.754;18.636;2023-02-15T09:20:05;42.90;;;25.75;;
56991;SDS011;42885;49.754;18.636;2023-02-15T09:22:37;40.43;;;23.73;;
56991;SDS011;42885;49.754;18.636;2023-02-15T09:25:08;44.03;;;26.33;;
56991;SDS011;42885;49.754;18.636;2023-02-15T09:27:39;40.17;;;24.85;;
56991;SDS011;42885;49.754;18.636;2023-02-15T09:30:10;42.20;;;25.20;;
56991;SDS011;42885;49.754;18.636;2023-02-15T09:32:42;39.60;;;24.20;;
56991;SDS011;42885;49.754;18.636;2023-02-15T09:35:15;40.25;;;24.07;;
56991;SDS011;42885;49.754;18.636;2023-02-15T09:37:46;37.17;;;23.52;;
56991;SDS011;42885;49.754;18.636;2023-02-15T09:40:20;36.65;;;23.95;;
56991;SDS011;42885;49.754;18.636;2023-02-15T09:43:14;36.88;;;22.85;;
56991;SDS011;42885;49.754;18.636;2023-02-15T09:48:24;36.08;;;22.60;;
56991;SDS011;42885;49.754;18.636;2023-02-15T09:56:55;36.73;;;22.13;;
56991;SDS011;42885;49.754;18.636;2023-02-15T10:16:56;30.27;;;20.10;;
56991;SDS011;42885;49.754;18.636;2023-02-15T10:19:39;28.92;;;20.12;;
56991;SDS011;42885;49.754;18.636;2023-02-15T10:25:07;29.57;;;19.82;;
56991;SDS011;42885;49.754;18.636;2023-02-15T10:28:02;29.60;;;19.27;;
56991;SDS011;42885;49.754;18.636;2023-02-15T10:30:41;33.23;;;19.92;;
56991;SDS011;42885;49.754;18.636;2023-02-15T10:33:14;34.45;;;21.33;;
56991;SDS011;42885;49.754;18.636;2023-02-15T10:38:37;35.85;;;21.97;;
56991;SDS011;42885;49.754;18.636;2023-02-15T10:44:44;28.53;;;18.50;;
56991;SDS011;42885;49.754;18.636;2023-02-15T10:47:19;30.95;;;18.27;;
56991;SDS011;42885;49.754;18.636;2023-02-15T10:49:54;30.95;;;19.07;;
56991;SDS011;42885;49.754;18.636;2023-02-15T11:01:22;29.10;;;19.40;;
56991;SDS011;42885;49.754;18.636;2023-02-15T11:06:41;32.30;;;19.87;;
56991;SDS011;42885;49.754;18.636;2023-02-15T11:09:21;28.10;;;19.02;;
56991;SDS011;42885;49.754;18.636;2023-02-15T11:11:55;25.80;;;18.30;;
56991;SDS011;42885;49.754;18.636;2023-02-15T11:17:08;22.45;;;16.77;;
56991;SDS011;42885;49.754;18.636;2023-02-15T11:19:42;23.35;;;18.45;;
56991;SDS011;42885;49.754;18.636;2023-02-15T11:22:13;26.23;;;19.17;;
56991;SDS011;42885;49.754;18.636;2023-02-15T11:24:45;27.07;;;19.55;;
56991;SDS011;42885;49.754;18.636;2023-02-15T11:27:21;33.67;;;20.63;;
56991;SDS011;42885;49.754;18.636;2023-02-15T11:30:01;25.05;;;20.05;;
56991;SDS011;42885;49.754;18.636;2023-02-15T11:32:43;26.33;;;18.95;;
56991;SDS011;42885;49.754;18.636;2023-02-15T11:35:29;22.85;;;17.77;;
56991;SDS011;42885;49.754;18.636;2023-02-15T11:38:17;22.10;;;18.80;;
56991;SDS011;42885;49.754;18.636;2023-02-15T11:41:07;24.30;;;19.85;;
56991;SDS011;42885;49.754;18.636;2023-02-15T11:43:50;23.87;;;19.87;;
56991;SDS011;42885;49.754;18.636;2023-02-15T11:46:22;24.98;;;20.25;;
56991;SDS011;42885;49.754;18.636;2023-02-15T11:48:54;24.87;;;20.00;;
56991;SDS011;42885;49.754;18.636;2023-02-15T11:51:27;26.95;;;22.02;;
56991;SDS011;42885;49.754;18.636;2023-02-15T11:53:59;26.63;;;23.07;;
56991;SDS011;42885;49.754;18.636;2023-02-15T11:56:31;27.17;;;23.17;;
56991;SDS011;42885;49.754;18.636;2023-02-15T11:59:04;25.88;;;22.75;;
56991;SDS011;42885;49.754;18.636;2023-02-15T12:01:46;29.18;;;21.52;;
56991;SDS011;42885;49.754;18.636;2023-02-15T12:04:30;27.67;;;22.52;;
56991;SDS011;42885;49.754;18.636;2023-02-15T12:07:15;28.45;;;21.62;;
56991;SDS011;42885;49.754;18.636;2023-02-15T12:10:04;23.12;;;20.77;;
56991;SDS011;42885;49.754;18.636;2023-02-15T12:13:10;22.65;;;20.12;;
56991;SDS011;42885;49.754;18.636;2023-02-15T12:15:48;25.05;;;20.85;;
56991;SDS011;42885;49.754;18.636;2023-02-15T12:21:07;26.35;;;19.37;;
56991;SDS011;42885;49.754;18.636;2023-02-15T12:26:30;23.97;;;19.27;;
56991;SDS011;42885;49.754;18.636;2023-02-15T12:29:17;23.83;;;19.48;;
56991;SDS011;42885;49.754;18.636;2023-02-15T12:31:51;23.38;;;19.05;;
56991;SDS011;42885;49.754;18.636;2023-02-15T12:34:26;20.20;;;17.40;;
56991;SDS011;42885;49.754;18.636;2023-02-15T12:37:07;20.48;;;17.00;;
56991;SDS011;42885;49.754;18.636;2023-02-15T12:39:55;19.95;;;16.75;;
56991;SDS011;42885;49.754;18.636;2023-02-15T12:42:40;19.45;;;15.35;;
56991;SDS011;42885;49.754;18.636;2023-02-15T12:48:13;19.30;;;14.38;;
56991;SDS011;42885;49.754;18.636;2023-02-15T12:50:47;16.95;;;14.10;;
56991;SDS011;42885;49.754;18.636;2023-02-15T12:53:21;18.00;;;14.40;;
56991;SDS011;42885;49.754;18.636;2023-02-15T12:55:56;15.65;;;13.95;;
56991;SDS011;42885;49.754;18.636;2023-02-15T12:58:29;17.33;;;14.30;;
56991;SDS011;42885;49.754;18.636;2023-02-15T13:01:10;18.00;;;14.38;;
56991;SDS011;42885;49.754;18.636;2023-02-15T13:06:33;17.25;;;14.53;;
56991;SDS011;42885;49.754;18.636;2023-02-15T13:09:14;18.27;;;15.08;;
56991;SDS011;42885;49.754;18.636;2023-02-15T13:11:52;16.77;;;15.08;;
56991;SDS011;42885;49.754;18.636;2023-02-15T13:14:32;18.87;;;16.33;;
56991;SDS011;42885;49.754;18.636;2023-02-15T13:17:04;17.32;;;15.38;;
56991;SDS011;42885;49.754;18.636;2023-02-15T13:19:36;24.67;;;17.13;;
56991;SDS011;42885;49.754;18.636;2023-02-15T13:22:14;21.57;;;16.87;;
56991;SDS011;42885;49.754;18.636;2023-02-15T13:24:47;20.13;;;18.03;;
56991;SDS011;42885;49.754;18.636;2023-02-15T13:27:24;29.87;;;26.77;;
56991;SDS011;42885;49.754;18.636;2023-02-15T13:30:50;29.67;;;24.52;;
56991;SDS011;42885;49.754;18.636;2023-02-15T13:32:55;21.23;;;18.15;;
56991;SDS011;42885;49.754;18.636;2023-02-15T13:35:40;20.45;;;18.32;;
56991;SDS011;42885;49.754;18.636;2023-02-15T13:40:53;20.92;;;18.75;;
56991;SDS011;42885;49.754;18.636;2023-02-15T13:46:55;21.35;;;19.15;;
56991;SDS011;42885;49.754;18.636;2023-02-15T13:49:45;23.42;;;19.95;;
56991;SDS011;42885;49.754;18.636;2023-02-15T13:52:24;24.27;;;19.92;;
56991;SDS011;42885;49.754;18.636;2023-02-15T14:01:04;22.42;;;20.12;;
56991;SDS011;42885;49.754;18.636;2023-02-15T14:06:37;23.17;;;20.67;;
56991;SDS011;42885;49.754;18.636;2023-02-15T14:09:24;26.00;;;21.73;;
56991;SDS011;42885;49.754;18.636;2023-02-15T14:15:13;25.63;;;22.33;;
56991;SDS011;42885;49.754;18.636;2023-02-15T14:17:55;29.00;;;22.40;;
56991;SDS011;42885;49.754;18.636;2023-02-15T14:23:33;28.03;;;22.23;;
56991;SDS011;42885;49.754;18.636;2023-02-15T14:26:19;30.65;;;22.82;;
56991;SDS011;42885;49.754;18.636;2023-02-15T14:28:51;30.80;;;21.80;;
56991;SDS011;42885;49.754;18.636;2023-02-15T14:31:45;31.00;;;23.25;;
56991;SDS011;42885;49.754;18.636;2023-02-15T14:34:21;31.17;;;23.53;;
56991;SDS011;42885;49.754;18.636;2023-02-15T14:36:50;29.32;;;21.40;;
56991;SDS011;42885;49.754;18.636;2023-02-15T14:39:36;27.90;;;20.73;;
56991;SDS011;42885;49.754;18.636;2023-02-15T14:42:43;50.78;;;35.63;;
56991;SDS011;42885;49.754;18.636;2023-02-15T14:45:30;32.67;;;23.87;;
56991;SDS011;42885;49.754;18.636;2023-02-15T14:48:29;34.67;;;24.12;;
56991;SDS011;42885;49.754;18.636;2023-02-15T14:51:01;33.48;;;22.10;;
56991;SDS011;42885;49.754;18.636;2023-02-15T14:53:33;31.63;;;21.87;;
56991;SDS011;42885;49.754;18.636;2023-02-15T15:04:03;31.10;;;21.93;;
56991;SDS011;42885;49.754;18.636;2023-02-15T15:06:38;32.73;;;22.73;;
56991;SDS011;42885;49.754;18.636;2023-02-15T15:09:21;33.02;;;22.60;;
56991;SDS011;42885;49.754;18.636;2023-02-15T15:11:55;35.65;;;22.85;;
56991;SDS011;42885;49.754;18.636;2023-02-15T15:14:44;37.17;;;23.57;;
56991;SDS011;42885;49.754;18.636;2023-02-15T15:17:52;37.35;;;24.00;;
56991;SDS011;42885;49.754;18.636;2023-02-15T15:25:51;35.08;;;23.67;;
56991;SDS011;42885;49.754;18.636;2023-02-15T15:34:07;33.23;;;23.12;;
56991;SDS011;42885;49.754;18.636;2023-02-15T15:37:16;30.67;;;22.53;;
56991;SDS011;42885;49.754;18.636;2023-02-15T15:39:51;32.63;;;23.87;;
56991;SDS011;42885;49.754;18.636;2023-02-15T15:42:43;36.98;;;23.98;;
56991;SDS011;42885;49.754;18.636;2023-02-15T15:50:47;38.13;;;25.08;;
56991;SDS011;42885;49.754;18.636;2023-02-15T15:53:23;38.03;;;23.80;;
56991;SDS011;42885;49.754;18.636;2023-02-15T15:56:01;41.28;;;25.50;;
56991;SDS011;42885;49.754;18.636;2023-02-15T15:58:33;39.93;;;24.13;;
56991;SDS011;42885;49.754;18.636;2023-02-15T16:01:08;43.45;;;26.23;;
56991;SDS011;42885;49.754;18.636;2023-02-15T16:03:50;39.53;;;25.97;;
56991;SDS011;42885;49.754;18.636;2023-02-15T16:06:29;37.58;;;25.72;;
56991;SDS011;42885;49.754;18.636;2023-02-15T16:11:47;40.53;;;26.73;;
56991;SDS011;42885;49.754;18.636;2023-02-15T16:14:32;44.47;;;27.43;;
56991;SDS011;42885;49.754;18.636;2023-02-15T16:16:55;43.28;;;27.77;;
56991;SDS011;42885;49.754;18.636;2023-02-15T16:19:29;44.77;;;27.40;;
56991;SDS011;42885;49.754;18.636;2023-02-15T16:22:08;46.40;;;27.85;;
56991;SDS011;42885;49.754;18.636;2023-02-15T16:24:52;43.85;;;27.40;;
56991;SDS011;42885;49.754;18.636;2023-02-15T16:30:13;47.70;;;28.52;;
56991;SDS011;42885;49.754;18.636;2023-02-15T16:32:48;49.63;;;29.82;;
56991;SDS011;42885;49.754;18.636;2023-02-15T16:35:21;52.25;;;31.30;;
56991;SDS011;42885;49.754;18.636;2023-02-15T16:37:53;49.23;;;30.70;;
56991;SDS011;42885;49.754;18.636;2023-02-15T16:43:01;201.85;;;137.45;;
56991;SDS011;42885;49.754;18.636;2023-02-15T16:45:36;63.78;;;37.60;;
56991;SDS011;42885;49.754;18.636;2023-02-15T16:48:10;57.10;;;33.58;;
56991;SDS011;42885;49.754;18.636;2023-02-15T16:50:51;61.70;;;34.63;;
56991;SDS011;42885;49.754;18.636;2023-02-15T16:53:30;62.15;;;35.38;;
56991;SDS011;42885;49.754;18.636;2023-02-15T16:55:58;64.50;;;37.17;;
56991;SDS011;42885;49.754;18.636;2023-02-15T16:58:39;65.37;;;35.88;;
56991;SDS011;42885;49.754;18.636;2023-02-15T17:01:13;62.20;;;36.87;;
56991;SDS011;42885;49.754;18.636;2023-02-15T17:03:45;63.98;;;37.35;;
56991;SDS011;42885;49.754;18.636;2023-02-15T17:06:22;67.25;;;38.10;;
56991;SDS011;42885;49.754;18.636;2023-02-15T17:09:13;72.27;;;39.30;;
56991;SDS011;42885;49.754;18.636;2023-02-15T17:11:41;70.17;;;39.57;;
56991;SDS011;42885;49.754;18.636;2023-02-15T17:14:18;68.86;;;38.68;;
56991;SDS011;42885;49.754;18.636;2023-02-15T17:16:52;59.98;;;36.68;;
56991;SDS011;42885;49.754;18.636;2023-02-15T17:19:26;63.20;;;36.53;;
56991;SDS011;42885;49.754;18.636;2023-02-15T17:22:14;68.70;;;38.80;;
56991;SDS011;42885;49.754;18.636;2023-02-15T17:24:40;64.17;;;39.20;;
56991;SDS011;42885;49.754;18.636;2023-02-15T17:29:50;68.85;;;40.20;;
56991;SDS011;42885;49.754;18.636;2023-02-15T17:32:24;117.67;;;67.63;;
56991;SDS011;42885;49.754;18.636;2023-02-15T17:34:58;112.28;;;64.50;;